Currently 74°F in Hemet, California, USA
74°F
74°F / 66°F
calm
0.00"
Monday, July 22, 2019 8:57 AM PDT

Hemet, California Weather Summary
Last 36 Hours

Temperature Winds Hourly Humidity Dewpoint
Time Report Norm Report Norm Max Gusts Precip. Rpt. Norm Rpt. Norm Pressure
1Mon 08:57 AM  74.1°F  76°F  calm  calm  none  0.00"  60%  51%  59°F  56°F  29.95"
2Mon 08:48 AM  74.1°F  75°F  calm  calm  none  ----  61%  53%  59°F  56°F  29.95"
Mon 08:00 AM  70.9°F  72°F  calm  calm  none  0.00"  65%  58%  58°F  56°F  29.93"
Mon 07:00 AM  67.1°F  69°F  calm  calm  none  0.00"  68%  60%  56°F  54°F  29.92"
Mon 06:00 AM  66.4°F  68°F  calm  calm  none  0.00"  69%  60%  56°F  53°F  29.92"
3Mon 05:13 AM  66.0°F  68°F  calm  calm  none  ----  68%  60%  55°F  53°F  29.91"
Mon 05:00 AM  66.4°F  68°F  calm  calm  none  0.00"  68%  59%  55°F  53°F  29.91"
Mon 04:00 AM  67.8°F  69°F  calm  calm  none  0.00"  66%  59%  56°F  53°F  29.92"
Mon 03:00 AM  69.3°F  70°F  calm  calm  none  0.00"  60%  58%  54°F  54°F  29.92"
Mon 02:00 AM  70.2°F  70°F  calm  calm  none  0.00"  58%  57%  54°F  54°F  29.92"
Mon 01:00 AM  70.9°F  71°F  calm  calm  none  0.00"  60%  56%  56°F  54°F  29.93"
Mon 12:00 AM  72.5°F  72°F  calm  calm  none  0.00"  55%  54%  55°F  54°F  29.93"
Sun 11:00 PM  75.7°F  74°F  calm  calm  none  0.00"  47%  51%  53°F  54°F  29.92"
Sun 10:00 PM  77.5°F  76°F  calm  calm  none  0.00"  44%  48%  53°F  54°F  29.92"
Sun 09:00 PM  81.0°F  79°F  calm  calm  6 mph  0.00"  38%  43%  52°F  54°F  29.91"
Sun 08:00 PM  85.1°F  82°F  4 mph W  1 mph  8 mph  0.00"  33%  39%  52°F  54°F  29.89"
Sun 07:00 PM  92.3°F  87°F  3 mph W  2 mph  10 mph  0.00"  27%  33%  52°F  54°F  29.87"
Sun 06:00 PM  98.1°F  91°F  6 mph W  4 mph  10 mph  0.00"  22%  30%  52°F  54°F  29.86"
Sun 05:00 PM  100.9°F  93°F  4 mph W  4 mph  13 mph  0.00"  19%  27%  50°F  53°F  29.86"
Sun 04:00 PM  102.7°F  94°F  5 mph W  4 mph  12 mph  0.00"  15%  26%  45°F  53°F  29.88"
Sun 03:00 PM  101.7°F  94°F  1 mph SW  4 mph  9 mph  0.00"  14%  26%  42°F  52°F  29.88"
Sun 02:00 PM  98.4°F  93°F  2 mph W  3 mph  10 mph  0.00"  16%  26%  43°F  52°F  29.90"
Sun 01:00 PM  95.4°F  91°F  calm  3 mph  8 mph  0.00"  19%  28%  45°F  53°F  29.91"
Sun 12:00 PM  91.4°F  89°F  3 mph SW  2 mph  7 mph  0.00"  22%  31%  46°F  53°F  29.93"
Sun 11:00 AM  87.1°F  85°F  1 mph W  1 mph  6 mph  0.00"  27%  37%  48°F  55°F  29.93"
Sun 10:00 AM  81.0°F  81°F  calm  1 mph  none  0.00"  36%  43%  51°F  56°F  29.93"
Sun 09:00 AM  74.8°F  76°F  calm  calm  none  0.00"  45%  51%  51°F  56°F  29.94"
Sun 08:00 AM  68.2°F  72°F  calm  calm  none  0.00"  55%  57%  51°F  56°F  29.93"
Sun 07:00 AM  64.8°F  69°F  calm  calm  none  0.00"  51%  59%  46°F  54°F  29.92"
Sun 06:00 AM  66.0°F  68°F  calm  calm  none  0.00"  46%  59%  44°F  53°F  29.92"
Sun 05:00 AM  65.5°F  68°F  calm  calm  none  0.00"  48%  59%  45°F  53°F  29.90"
Sun 04:00 AM  64.8°F  69°F  calm  calm  none  0.00"  54%  59%  47°F  53°F  29.90"
Sun 03:00 AM  65.5°F  69°F  calm  calm  none  0.00"  53%  58%  47°F  53°F  29.92"
Sun 02:00 AM  66.0°F  70°F  calm  calm  none  0.00"  51%  57%  47°F  54°F  29.92"
Sun 01:00 AM  67.1°F  71°F  calm  calm  none  0.00"  50%  56%  47°F  54°F  29.93"
Sun 12:00 AM  67.6°F  72°F  calm  calm  none  0.00"  49%  54%  47°F  54°F  29.94"
Sat 11:00 PM  69.4°F  74°F  calm  calm  none  0.00"  46%  51%  47°F  54°F  29.93"
Sat 10:00 PM  72.1°F  76°F  calm  calm  none  0.00"  36%  47%  43°F  54°F  29.92"
Sat 09:00 PM  75.4°F  79°F  calm  calm  5 mph  0.00"  37%  43%  46°F  54°F  29.91"

  1. Current weather data. No green row appears if the current weather data is also the high or low for the current day.
  2. High temperature for the current day.
  3. Low temperature for the current day.

The Hemet weather pages are a service of WeatherCurrents. Hemet, California is located in the San Jacinto Valley, in western Riverside County, at the foot of the San Jacinto mountains.
Copyright ©2019  WeatherCurrents. All rights reserved. - Submit questions and comments - Privacy Policy

This page automatically refreshes every 10 minutes.